Time;durP1;ratioP1;P1;durP2;ratioP2;P2;SDS_P1;SDS_P2;PMS_P1;PMS_P2;Temp;Humidity;BMP_temperature;BMP_pressure;BME280_temperature;BME280_humidity;BME280_pressure;Samples;Min_cycle;Max_cycle;Signal;HPM_P1;HPM_P2
2023/12/16 00:01:28;;;;;;;1677.90;999.90;;;28.40;99.90;;;;;;5034529;28;20026;-66
2023/12/16 00:03:55;;;;;;;1651.47;999.90;;;28.40;99.90;;;;;;5051487;28;20475;-66
2023/12/16 00:06:23;;;;;;;1660.57;999.90;;;28.40;99.90;;;;;;5054287;28;20113;-66
2023/12/16 00:08:49;;;;;;;1669.50;999.90;;;28.40;99.90;;;;;;5047876;28;20079;-66
2023/12/16 00:11:16;;;;;;;1645.25;999.90;;;28.50;99.90;;;;;;5054224;28;20029;-66
2023/12/16 00:13:42;;;;;;;1669.03;999.90;;;28.50;99.90;;;;;;5038024;28;20018;-66
2023/12/16 00:16:09;;;;;;;1622.25;999.90;;;28.50;99.90;;;;;;5034158;28;20064;-66
2023/12/16 00:18:36;;;;;;;1651.60;999.90;;;28.60;99.90;;;;;;5034026;28;20021;-66
2023/12/16 00:21:03;;;;;;;1663.07;999.90;;;28.50;99.90;;;;;;5034304;28;20029;-66
2023/12/16 00:23:30;;;;;;;1632.82;999.90;;;28.60;99.90;;;;;;5034218;28;20049;-66
2023/12/16 00:25:57;;;;;;;1652.47;999.90;;;28.60;99.90;;;;;;5033898;28;20026;-67
2023/12/16 00:28:23;;;;;;;1624.53;999.90;;;28.60;99.90;;;;;;5034072;28;20033;-66
2023/12/16 00:30:50;;;;;;;1564.40;999.90;;;28.70;99.90;;;;;;5033972;28;20036;-66
2023/12/16 00:33:16;;;;;;;1632.70;999.90;;;28.70;99.90;;;;;;5034157;28;20029;-67
2023/12/16 00:35:43;;;;;;;1641.10;999.90;;;28.70;99.90;;;;;;5034082;28;20025;-69
2023/12/16 00:38:09;;;;;;;1626.38;999.90;;;28.80;99.90;;;;;;5033507;28;20500;-67
2023/12/16 00:40:36;;;;;;;1648.00;999.90;;;28.80;99.90;;;;;;5048787;28;20087;-66
2023/12/16 00:43:04;;;;;;;1650.28;999.90;;;28.80;99.90;;;;;;5053658;28;20103;-65
2023/12/16 00:45:30;;;;;;;1597.90;999.90;;;28.90;99.90;;;;;;5053848;28;20463;-65
2023/12/16 00:47:57;;;;;;;1626.15;999.90;;;28.90;99.90;;;;;;5053504;28;20475;-67
2023/12/16 00:50:24;;;;;;;1662.95;999.90;;;29.00;99.90;;;;;;5053750;28;20052;-65
2023/12/16 00:52:50;;;;;;;1663.05;999.90;;;29.00;99.90;;;;;;5053745;28;20064;-66
2023/12/16 00:55:17;;;;;;;1641.18;999.90;;;29.00;99.90;;;;;;5052379;28;20083;-64
2023/12/16 00:57:44;;;;;;;1658.38;999.90;;;29.00;99.90;;;;;;5053217;28;20086;-65
2023/12/16 01:00:11;;;;;;;1637.18;999.90;;;29.00;99.90;;;;;;5053268;28;20029;-66
2023/12/16 01:02:38;;;;;;;1640.97;999.90;;;29.00;99.90;;;;;;5053306;28;20033;-66
2023/12/16 01:05:04;;;;;;;1638.57;999.90;;;29.10;99.90;;;;;;5053549;28;20464;-66
2023/12/16 01:07:31;;;;;;;1648.95;999.90;;;29.10;99.90;;;;;;5053396;28;20036;-66
2023/12/16 01:09:58;;;;;;;1659.38;999.90;;;29.10;99.90;;;;;;5048071;28;20028;-66
2023/12/16 01:12:24;;;;;;;1627.05;999.90;;;29.10;99.90;;;;;;5033670;28;20033;-65
2023/12/16 01:14:51;;;;;;;1612.75;999.90;;;29.10;99.90;;;;;;5050197;28;20037;-66
2023/12/16 01:17:17;;;;;;;1616.97;999.90;;;29.20;99.90;;;;;;5053225;28;20032;-65
2023/12/16 01:19:44;;;;;;;1646.22;999.90;;;29.30;99.90;;;;;;5053330;28;20027;-66
2023/12/16 01:22:10;;;;;;;1656.15;999.90;;;29.40;99.90;;;;;;5053132;28;20020;-66
2023/12/16 01:24:37;;;;;;;1624.57;999.90;;;29.40;99.90;;;;;;5053163;28;20025;-65
2023/12/16 01:27:05;;;;;;;1570.05;999.90;;;29.40;99.90;;;;;;5053716;28;20106;-65
2023/12/16 01:29:31;;;;;;;1635.00;999.90;;;29.50;99.90;;;;;;5053089;28;20025;-65
2023/12/16 01:31:58;;;;;;;1625.45;999.90;;;29.50;99.90;;;;;;5052957;28;20033;-66
2023/12/16 01:34:24;;;;;;;1625.93;999.90;;;29.50;99.90;;;;;;5053086;28;20033;-66
2023/12/16 01:36:51;;;;;;;1642.70;999.90;;;29.60;99.90;;;;;;5052748;28;20045;-66
2023/12/16 01:39:18;;;;;;;1503.90;999.90;;;29.60;99.90;;;;;;5053074;28;20066;-68
2023/12/16 01:41:44;;;;;;;1505.00;999.90;;;29.60;99.90;;;;;;5052882;28;20100;-65
2023/12/16 01:44:11;;;;;;;1456.78;999.90;;;29.60;99.90;;;;;;5052920;28;20036;-66
2023/12/16 01:46:38;;;;;;;1349.32;999.90;;;29.60;99.90;;;;;;5053262;28;20384;-65
2023/12/16 01:49:05;;;;;;;1410.75;999.90;;;29.60;99.90;;;;;;5052846;28;20029;-66
2023/12/16 01:51:32;;;;;;;1370.57;999.90;;;29.60;99.90;;;;;;5053099;28;20025;-66
2023/12/16 01:54:00;;;;;;;1395.80;999.90;;;29.70;99.90;;;;;;5050236;28;20028;-65
2023/12/16 01:56:29;;;;;;;1244.55;999.90;;;29.70;99.90;;;;;;5048450;28;20056;-67
2023/12/16 01:58:55;;;;;;;1389.35;999.90;;;29.80;99.90;;;;;;5038643;28;20026;-68
2023/12/16 02:01:22;;;;;;;1413.30;999.90;;;29.80;99.90;;;;;;5033221;28;20029;-67
2023/12/16 02:03:51;;;;;;;1327.38;999.90;;;29.90;99.90;;;;;;5033043;28;20021;-68
2023/12/16 02:06:20;;;;;;;1370.82;999.90;;;29.90;99.90;;;;;;5038324;28;20029;-65
2023/12/16 02:08:47;;;;;;;1092.90;981.05;;;30.00;99.90;;;;;;5050153;28;20082;-66
2023/12/16 02:11:13;;;;;;;1218.55;999.90;;;30.00;99.90;;;;;;5041901;28;20080;-65
2023/12/16 02:13:41;;;;;;;1337.75;999.90;;;30.10;99.90;;;;;;5036736;28;20049;-66
2023/12/16 02:16:09;;;;;;;1358.88;999.90;;;30.20;99.90;;;;;;5036625;28;20419;-65
2023/12/16 02:18:37;;;;;;;1364.43;999.90;;;30.20;99.90;;;;;;5036303;28;20076;-65
2023/12/16 02:21:04;;;;;;;1404.63;999.90;;;30.20;99.90;;;;;;5036610;28;20028;-66
2023/12/16 02:23:30;;;;;;;1389.03;999.90;;;30.20;99.90;;;;;;5036559;28;20078;-66
2023/12/16 02:25:57;;;;;;;1358.30;999.90;;;30.20;99.90;;;;;;5036292;28;20049;-66
2023/12/16 02:28:23;;;;;;;1361.68;999.90;;;30.20;99.90;;;;;;5036432;28;20018;-65
2023/12/16 02:30:50;;;;;;;1377.00;999.90;;;30.10;99.90;;;;;;5036208;28;20388;-65
2023/12/16 02:33:17;;;;;;;1394.00;999.90;;;30.20;99.90;;;;;;5036351;28;20096;-65
2023/12/16 02:35:44;;;;;;;1342.53;999.90;;;30.20;99.90;;;;;;5036445;28;20101;-66
2023/12/16 02:38:10;;;;;;;1304.25;999.90;;;30.10;99.90;;;;;;5036078;28;20455;-68
2023/12/16 02:40:41;;;;;;;1320.65;999.90;;;30.10;99.90;;;;;;5036027;28;20021;-66
2023/12/16 02:43:09;;;;;;;1343.00;999.90;;;30.10;99.90;;;;;;5036355;28;20410;-66
2023/12/16 02:45:35;;;;;;;1213.70;999.90;;;30.10;99.90;;;;;;5036051;28;20029;-67
2023/12/16 02:48:02;;;;;;;1081.50;971.53;;;30.20;99.90;;;;;;5035826;28;20032;-66
2023/12/16 02:50:29;;;;;;;1077.95;967.92;;;30.20;99.90;;;;;;5035883;28;20022;-66
2023/12/16 02:52:55;;;;;;;1125.30;995.90;;;30.20;99.90;;;;;;5035973;28;20022;-66
2023/12/16 02:55:22;;;;;;;1203.05;999.90;;;30.30;99.90;;;;;;5035854;28;20022;-66
2023/12/16 02:57:48;;;;;;;1052.80;945.60;;;30.30;99.90;;;;;;5035278;28;20400;-66
2023/12/16 03:00:15;;;;;;;1212.53;999.90;;;30.30;99.90;;;;;;5035973;28;20018;-66
2023/12/16 03:02:41;;;;;;;1081.13;971.55;;;30.30;99.90;;;;;;5035822;28;20026;-66
2023/12/16 03:05:08;;;;;;;892.70;804.00;;;30.30;99.90;;;;;;5053825;28;20021;-66
2023/12/16 03:07:34;;;;;;;931.38;838.75;;;30.40;99.90;;;;;;5055666;28;20029;-66
2023/12/16 03:10:01;;;;;;;990.03;890.30;;;30.50;99.90;;;;;;5055476;28;20048;-65
2023/12/16 03:12:28;;;;;;;1169.20;999.90;;;30.50;99.90;;;;;;5055315;28;20090;-66
2023/12/16 03:14:55;;;;;;;1154.38;999.90;;;30.70;99.90;;;;;;5055259;28;20041;-66
2023/12/16 03:17:21;;;;;;;1258.50;999.90;;;30.70;99.90;;;;;;5054266;28;20029;-66
2023/12/16 03:19:48;;;;;;;1264.53;999.90;;;30.80;99.90;;;;;;5054833;28;20070;-66
2023/12/16 03:22:14;;;;;;;1168.68;999.90;;;30.90;99.90;;;;;;5055376;28;20055;-65
2023/12/16 03:24:41;;;;;;;1093.60;982.20;;;31.00;99.90;;;;;;5051022;28;20124;-64
2023/12/16 03:27:07;;;;;;;1215.07;999.90;;;31.00;99.90;;;;;;5054959;28;20029;-65
2023/12/16 03:29:34;;;;;;;1183.97;999.90;;;31.10;99.90;;;;;;5054904;28;20104;-65
2023/12/16 03:32:00;;;;;;;1122.13;999.78;;;31.10;99.90;;;;;;5052031;28;20598;-66
2023/12/16 03:34:30;;;;;;;1079.20;970.45;;;31.00;99.90;;;;;;5054733;28;20037;-64
2023/12/16 03:36:56;;;;;;;1063.93;957.63;;;31.00;99.90;;;;;;5053845;28;20048;-65
2023/12/16 03:39:23;;;;;;;1004.40;905.50;;;31.00;99.90;;;;;;5054919;28;20044;-68
2023/12/16 03:41:49;;;;;;;1175.68;999.90;;;31.00;99.90;;;;;;5054836;28;20457;-67
2023/12/16 03:44:16;;;;;;;1052.20;945.45;;;31.00;99.90;;;;;;5054677;28;20028;-65
2023/12/16 03:46:42;;;;;;;975.20;874.78;;;30.90;99.90;;;;;;5054699;28;20021;-65
2023/12/16 03:49:09;;;;;;;949.55;854.00;;;31.00;99.90;;;;;;5055261;28;20017;-65
2023/12/16 03:51:36;;;;;;;1153.65;999.90;;;31.10;99.90;;;;;;5054840;28;20029;-66
2023/12/16 03:54:02;;;;;;;998.75;898.10;;;31.10;99.90;;;;;;5054757;28;20024;-68
2023/12/16 03:56:30;;;;;;;972.05;874.58;;;31.10;99.90;;;;;;5054043;28;20463;-67
2023/12/16 03:58:56;;;;;;;1064.78;959.20;;;31.20;99.90;;;;;;5054233;28;20493;-69
2023/12/16 04:01:23;;;;;;;839.63;756.17;;;31.30;99.90;;;;;;5053102;28;20070;-69
2023/12/16 04:03:50;;;;;;;869.22;782.85;;;31.40;99.90;;;;;;5054612;28;20096;-69
2023/12/16 04:06:16;;;;;;;1037.03;932.35;;;31.50;99.90;;;;;;5054391;28;20395;-69
2023/12/16 04:08:43;;;;;;;1006.60;906.42;;;31.60;99.90;;;;;;5051631;28;20387;-68
2023/12/16 04:11:10;;;;;;;863.65;778.22;;;31.70;99.90;;;;;;5048985;28;20028;-70
2023/12/16 04:13:36;;;;;;;887.83;800.05;;;31.70;99.90;;;;;;5053509;28;20027;-66
2023/12/16 04:16:04;;;;;;;878.95;792.03;;;31.70;99.90;;;;;;5053935;28;20095;-64
2023/12/16 04:18:31;;;;;;;901.47;812.13;;;31.80;99.90;;;;;;5053609;28;20186;-64
2023/12/16 04:20:59;;;;;;;955.38;860.03;;;31.80;99.90;;;;;;5053080;28;20044;-65
2023/12/16 04:23:25;;;;;;;1078.78;970.65;;;32.00;99.90;;;;;;5051552;28;20079;-65
2023/12/16 04:25:52;;;;;;;998.65;898.70;;;32.10;99.90;;;;;;5049127;28;20047;-67
2023/12/16 04:28:19;;;;;;;973.97;876.80;;;32.10;99.90;;;;;;5049986;28;20037;-67
2023/12/16 04:30:45;;;;;;;1013.88;912.95;;;32.10;99.90;;;;;;5050120;28;20021;-66
2023/12/16 04:33:12;;;;;;;938.85;845.55;;;32.10;99.90;;;;;;5050806;28;20035;-65
2023/12/16 04:35:38;;;;;;;1087.35;978.88;;;32.30;99.90;;;;;;5053083;28;20037;-65
2023/12/16 04:38:05;;;;;;;989.72;891.25;;;32.30;99.90;;;;;;5049626;28;20037;-65
2023/12/16 04:40:31;;;;;;;1096.72;986.55;;;32.40;99.90;;;;;;5053067;28;20033;-64
2023/12/16 04:42:58;;;;;;;1202.22;999.90;;;32.50;99.90;;;;;;5053477;28;20380;-65
2023/12/16 04:45:24;;;;;;;1211.95;999.90;;;32.50;99.90;;;;;;5051659;28;20017;-65
2023/12/16 04:47:51;;;;;;;1111.25;998.95;;;32.50;99.90;;;;;;5053199;28;20053;-65
2023/12/16 04:50:17;;;;;;;1128.75;999.90;;;32.40;99.90;;;;;;5053461;28;20048;-65
2023/12/16 04:52:44;;;;;;;1027.93;924.78;;;32.40;99.90;;;;;;5050781;28;20444;-66
2023/12/16 04:55:11;;;;;;;972.35;875.28;;;32.30;99.90;;;;;;5049389;28;20029;-66
2023/12/16 04:57:38;;;;;;;926.75;834.90;;;32.30;99.90;;;;;;5053241;28;20494;-65
2023/12/16 05:00:05;;;;;;;977.63;880.03;;;32.40;99.90;;;;;;5052310;28;20108;-64
2023/12/16 05:02:31;;;;;;;1031.38;929.33;;;32.30;99.90;;;;;;5053542;28;20044;-66
2023/12/16 05:04:58;;;;;;;756.20;681.38;;;32.30;99.90;;;;;;5052946;28;20029;-64
2023/12/16 05:07:24;;;;;;;889.15;801.13;;;32.30;99.90;;;;;;5053241;28;20021;-66
2023/12/16 05:09:51;;;;;;;772.58;696.47;;;32.30;99.90;;;;;;5053307;28;20045;-67
2023/12/16 05:12:20;;;;;;;594.83;533.70;;;32.30;99.90;;;;;;5052933;28;20128;-66
2023/12/16 05:14:46;;;;;;;606.78;545.25;;;32.30;99.90;;;;;;5053003;28;20017;-66
2023/12/16 05:17:13;;;;;;;583.80;523.70;;;32.30;99.90;;;;;;5052929;28;20438;-66
2023/12/16 05:19:39;;;;;;;775.28;699.17;;;32.30;99.90;;;;;;5053063;28;20047;-67
2023/12/16 05:22:06;;;;;;;799.60;720.35;;;32.30;99.90;;;;;;5053116;28;20095;-66
2023/12/16 05:24:32;;;;;;;993.67;894.97;;;32.30;99.90;;;;;;5050790;28;20017;-66
2023/12/16 05:26:59;;;;;;;762.83;687.15;;;32.30;99.90;;;;;;5052606;28;20036;-66
2023/12/16 05:29:25;;;;;;;844.38;760.70;;;32.40;99.90;;;;;;5053018;28;20025;-65
2023/12/16 05:31:52;;;;;;;610.67;548.65;;;32.50;99.90;;;;;;5052944;28;20020;-64
2023/12/16 05:34:18;;;;;;;808.30;727.58;;;32.60;99.90;;;;;;5052939;28;20054;-65
2023/12/16 05:36:47;;;;;;;952.85;858.33;;;32.80;99.90;;;;;;5050863;28;20021;-62
2023/12/16 05:39:14;;;;;;;750.13;675.95;;;32.90;99.90;;;;;;5052593;28;20045;-63
2023/12/16 05:41:41;;;;;;;996.40;896.97;;;32.90;99.90;;;;;;5054721;28;20021;-64
2023/12/16 05:44:07;;;;;;;916.72;825.80;;;32.80;99.90;;;;;;5057185;28;20158;-63
2023/12/16 05:46:34;;;;;;;881.65;794.17;;;32.70;99.90;;;;;;5057631;28;20460;-64
2023/12/16 05:49:00;;;;;;;750.00;675.75;;;32.70;99.90;;;;;;5057150;28;20029;-62
2023/12/16 05:51:27;;;;;;;765.38;690.05;;;32.70;99.90;;;;;;5056907;28;20028;-64
2023/12/16 05:53:53;;;;;;;914.47;824.22;;;32.70;99.90;;;;;;5057106;28;20025;-66
2023/12/16 05:56:20;;;;;;;974.33;876.65;;;32.70;99.90;;;;;;5056861;28;20031;-70
2023/12/16 05:58:46;;;;;;;1015.90;914.30;;;32.70;99.90;;;;;;5056725;28;20032;-70
2023/12/16 06:01:19;;;;;;;888.28;800.33;;;32.60;99.90;;;;;;5056403;28;20467;-65
2023/12/16 06:03:46;;;;;;;842.10;758.88;;;32.50;99.90;;;;;;5055849;28;20059;-64
2023/12/16 06:06:15;;;;;;;843.33;760.17;;;32.50;99.90;;;;;;5055110;28;20032;-69
2023/12/16 06:08:42;;;;;;;903.92;814.50;;;32.50;99.90;;;;;;5055596;28;20414;-66
2023/12/16 06:11:12;;;;;;;920.75;828.97;;;32.50;99.90;;;;;;5056188;28;20083;-66
2023/12/16 06:13:39;;;;;;;1021.70;920.03;;;32.50;99.90;;;;;;5056981;28;20060;-64
2023/12/16 06:16:08;;;;;;;1136.38;999.90;;;32.60;99.90;;;;;;5056561;28;20020;-66
2023/12/16 06:18:37;;;;;;;1064.75;957.90;;;32.60;99.90;;;;;;5053485;28;20025;-65
2023/12/16 06:21:05;;;;;;;987.67;889.42;;;32.70;99.90;;;;;;5055907;28;20100;-66
2023/12/16 06:23:32;;;;;;;915.47;824.35;;;32.70;99.90;;;;;;5052825;28;20120;-63
2023/12/16 06:25:58;;;;;;;949.20;854.55;;;32.80;99.90;;;;;;5054874;28;20021;-66
2023/12/16 06:28:25;;;;;;;934.67;841.97;;;32.90;99.90;;;;;;5055295;28;20056;-66
2023/12/16 06:30:51;;;;;;;860.13;775.03;;;32.90;99.90;;;;;;5055830;28;20456;-66
2023/12/16 06:33:18;;;;;;;813.83;733.67;;;32.90;99.90;;;;;;5054726;28;20095;-65
2023/12/16 06:35:45;;;;;;;794.05;715.83;;;33.00;99.90;;;;;;5055066;28;20032;-64
2023/12/16 06:38:11;;;;;;;847.60;764.13;;;33.00;99.90;;;;;;5054776;28;20521;-65
2023/12/16 06:40:38;;;;;;;946.50;852.45;;;33.00;99.90;;;;;;5055072;28;20139;-66
2023/12/16 06:43:04;;;;;;;742.90;668.08;;;33.10;99.90;;;;;;5054106;28;20489;-63
2023/12/16 06:45:32;;;;;;;917.92;826.55;;;33.20;99.90;;;;;;5055524;28;20009;-65
2023/12/16 06:47:59;;;;;;;939.65;846.28;;;33.20;99.90;;;;;;5054181;28;20099;-63
2023/12/16 06:50:26;;;;;;;851.42;767.10;;;33.30;99.90;;;;;;5054727;28;20083;-64
2023/12/16 06:52:53;;;;;;;907.60;817.40;;;33.40;99.90;;;;;;5053486;28;20459;-63
2023/12/16 06:55:19;;;;;;;744.28;669.63;;;33.40;99.90;;;;;;5054451;28;20040;-62
2023/12/16 06:57:46;;;;;;;909.40;819.38;;;33.30;99.90;;;;;;5054353;28;20130;-64
2023/12/16 07:00:13;;;;;;;824.47;742.92;;;33.20;99.90;;;;;;5054354;28;20024;-62
2023/12/16 07:02:42;;;;;;;873.58;787.30;;;33.00;99.90;;;;;;5053742;28;20021;-62
2023/12/16 07:05:11;;;;;;;865.28;779.80;;;33.00;99.90;;;;;;5054104;28;20024;-62
2023/12/16 07:07:37;;;;;;;877.78;790.97;;;32.90;99.90;;;;;;5053860;28;20032;-62
2023/12/16 07:10:06;;;;;;;737.53;664.22;;;32.80;99.90;;;;;;5053319;28;20379;-62
2023/12/16 07:12:33;;;;;;;753.13;677.88;;;32.80;99.90;;;;;;5055378;28;20036;-63
2023/12/16 07:14:59;;;;;;;725.33;652.60;;;32.70;99.90;;;;;;5055290;28;20029;-64
2023/12/16 07:17:26;;;;;;;695.85;626.35;;;32.60;99.90;;;;;;5052652;28;20467;-62
2023/12/16 07:19:52;;;;;;;656.13;588.80;;;32.30;99.90;;;;;;5055231;28;20036;-63
2023/12/16 07:22:19;;;;;;;655.08;588.80;;;32.10;99.90;;;;;;5055351;28;20359;-62
2023/12/16 07:24:45;;;;;;;653.20;586.85;;;32.00;99.90;;;;;;5052753;28;20048;-63
2023/12/16 07:27:12;;;;;;;684.78;615.75;;;31.80;99.90;;;;;;5055263;28;20020;-64
2023/12/16 07:29:39;;;;;;;712.83;640.75;;;31.80;99.90;;;;;;5055299;28;20497;-63
2023/12/16 07:32:05;;;;;;;679.92;610.50;;;31.70;99.90;;;;;;5055153;28;20078;-64
2023/12/16 07:34:32;;;;;;;655.88;588.63;;;31.70;99.90;;;;;;5052672;28;20024;-62
2023/12/16 07:36:58;;;;;;;605.00;542.50;;;31.50;99.90;;;;;;5054876;28;20056;-65
2023/12/16 07:39:25;;;;;;;611.85;547.92;;;31.50;99.90;;;;;;5054731;28;20014;-64
2023/12/16 07:41:52;;;;;;;604.75;542.05;;;31.40;99.90;;;;;;5052414;28;20024;-62
2023/12/16 07:44:18;;;;;;;660.20;591.65;;;31.30;99.90;;;;;;5054574;28;20013;-64
2023/12/16 07:46:45;;;;;;;715.10;641.95;;;31.20;99.90;;;;;;5055180;28;20483;-63
2023/12/16 07:49:12;;;;;;;964.90;867.17;;;31.20;99.90;;;;;;5054920;28;20040;-61
2023/12/16 07:51:38;;;;;;;882.80;794.17;;;31.10;99.90;;;;;;5054772;28;20017;-62
2023/12/16 07:54:05;;;;;;;746.00;670.80;;;31.20;99.90;;;;;;5045051;28;20496;-61
2023/12/16 07:56:32;;;;;;;776.60;698.90;;;31.20;99.90;;;;;;5051825;28;20024;-62
2023/12/16 07:58:58;;;;;;;721.65;647.80;;;31.20;99.90;;;;;;5043266;28;20033;-62
2023/12/16 08:01:25;;;;;;;754.97;679.03;;;31.00;99.90;;;;;;5044785;28;20078;-62
2023/12/16 08:03:51;;;;;;;807.15;725.60;;;30.90;99.90;;;;;;5053951;28;20071;-61
2023/12/16 08:06:18;;;;;;;769.50;691.75;;;30.90;99.90;;;;;;5054694;28;20430;-62
2023/12/16 08:08:45;;;;;;;873.08;784.80;;;30.90;99.90;;;;;;5054379;28;20113;-62
2023/12/16 08:11:12;;;;;;;812.53;731.50;;;30.90;99.90;;;;;;5054067;28;20391;-67
2023/12/16 08:13:38;;;;;;;783.05;704.05;;;30.80;99.90;;;;;;5054201;28;20032;-64
2023/12/16 08:16:07;;;;;;;872.65;785.65;;;30.80;99.90;;;;;;5054316;28;20036;-63
2023/12/16 08:18:33;;;;;;;735.35;660.65;;;30.80;99.90;;;;;;5049862;28;20017;-62
2023/12/16 08:21:00;;;;;;;715.05;643.22;;;30.80;99.90;;;;;;5054219;28;20498;-61
2023/12/16 08:23:27;;;;;;;697.80;627.15;;;30.70;99.90;;;;;;5053986;28;20043;-61
2023/12/16 08:25:53;;;;;;;737.92;663.17;;;30.60;99.90;;;;;;5051333;28;20032;-62
2023/12/16 08:28:20;;;;;;;857.63;771.13;;;30.50;99.90;;;;;;5054036;28;20025;-63
2023/12/16 08:30:49;;;;;;;868.65;781.00;;;30.40;99.90;;;;;;5053609;28;20075;-62
2023/12/16 08:33:15;;;;;;;905.47;814.38;;;30.50;99.90;;;;;;5051436;28;20111;-62
2023/12/16 08:35:44;;;;;;;777.85;700.08;;;30.50;99.90;;;;;;5053257;28;20046;-64
2023/12/16 08:38:11;;;;;;;853.58;768.28;;;30.50;99.90;;;;;;5052961;28;20114;-63
2023/12/16 08:40:41;;;;;;;777.35;699.45;;;30.30;99.90;;;;;;5053159;28;20023;-65
2023/12/16 08:43:08;;;;;;;764.20;687.40;;;30.30;99.90;;;;;;5050973;28;20032;-64
2023/12/16 08:45:34;;;;;;;807.50;725.67;;;30.30;99.90;;;;;;5053451;28;20066;-63
2023/12/16 08:48:01;;;;;;;715.97;643.97;;;30.30;99.90;;;;;;5052839;28;20028;-63
2023/12/16 08:50:28;;;;;;;632.60;567.47;;;30.30;99.90;;;;;;5052698;28;20070;-63
2023/12/16 08:52:54;;;;;;;737.25;662.65;;;30.30;99.90;;;;;;5052928;28;20021;-63
2023/12/16 08:55:23;;;;;;;642.83;577.15;;;30.30;99.90;;;;;;5053175;28;20064;-64
2023/12/16 08:57:51;;;;;;;568.05;509.40;;;30.30;99.90;;;;;;5052659;28;20025;-64
2023/12/16 09:00:18;;;;;;;562.85;504.33;;;30.30;99.90;;;;;;5052710;28;20486;-64
2023/12/16 09:02:44;;;;;;;568.92;509.42;;;30.30;99.90;;;;;;5053511;28;20029;-63
2023/12/16 09:05:11;;;;;;;562.70;504.30;;;30.30;99.90;;;;;;5053715;28;20029;-62
2023/12/16 09:07:37;;;;;;;563.97;505.08;;;30.30;99.90;;;;;;5053958;28;20059;-64
2023/12/16 09:10:05;;;;;;;603.28;541.05;;;30.30;99.90;;;;;;5054001;28;20547;-64
2023/12/16 09:12:31;;;;;;;775.88;698.03;;;30.30;99.90;;;;;;5054045;28;20020;-61
2023/12/16 09:14:58;;;;;;;688.67;618.58;;;30.30;99.90;;;;;;5053936;28;20013;-63
2023/12/16 09:17:24;;;;;;;602.50;539.50;;;30.30;99.90;;;;;;5051913;28;20029;-63
2023/12/16 09:19:50;;;;;;;599.97;538.33;;;30.20;99.90;;;;;;5053462;28;20036;-62
2023/12/16 09:22:19;;;;;;;572.50;512.28;;;30.20;99.90;;;;;;5052998;28;20025;-66
2023/12/16 09:24:47;;;;;;;627.83;562.90;;;30.20;99.90;;;;;;5106175;22;20114;-66
2023/12/16 09:27:14;;;;;;;664.47;596.55;;;30.30;99.90;;;;;;5080911;28;20024;-64
2023/12/16 09:29:40;;;;;;;756.10;680.90;;;30.40;99.90;;;;;;5073778;28;20025;-65
2023/12/16 09:32:07;;;;;;;766.13;689.72;;;30.30;99.90;;;;;;5073528;28;20017;-64
2023/12/16 09:34:34;;;;;;;873.58;785.78;;;30.30;99.90;;;;;;5074079;28;20013;-64
2023/12/16 09:37:00;;;;;;;928.70;835.90;;;30.30;99.90;;;;;;5073289;28;20028;-65
2023/12/16 09:39:27;;;;;;;708.08;635.88;;;30.30;99.90;;;;;;5079255;28;20026;-66
2023/12/16 09:41:56;;;;;;;661.67;594.63;;;30.40;99.90;;;;;;5083988;28;20024;-66
2023/12/16 09:44:25;;;;;;;663.00;595.67;;;30.40;99.90;;;;;;5082246;28;20050;-66
2023/12/16 09:46:53;;;;;;;587.33;526.80;;;30.30;99.90;;;;;;5084054;28;20095;-64
2023/12/16 09:49:21;;;;;;;613.53;549.58;;;30.30;99.90;;;;;;5083827;28;20069;-62
2023/12/16 09:51:48;;;;;;;607.30;544.28;;;30.20;99.90;;;;;;5084756;28;20021;-64
2023/12/16 09:54:16;;;;;;;596.60;535.03;;;30.00;99.90;;;;;;5083638;28;20020;-63
2023/12/16 09:56:44;;;;;;;592.35;529.95;;;30.00;99.90;;;;;;5064713;28;20441;-63
2023/12/16 09:59:12;;;;;;;603.35;540.65;;;30.00;99.90;;;;;;5066330;28;20142;-65
2023/12/16 10:01:39;;;;;;;591.97;530.35;;;29.90;99.90;;;;;;5062086;28;20017;-64
2023/12/16 10:04:08;;;;;;;616.08;551.92;;;29.80;99.90;;;;;;5062273;28;20035;-63
2023/12/16 10:06:35;;;;;;;633.20;567.75;;;29.80;99.90;;;;;;5062886;28;20021;-63
2023/12/16 10:09:01;;;;;;;664.17;596.28;;;29.80;99.90;;;;;;5061732;28;20031;-66
2023/12/16 10:11:28;;;;;;;653.72;586.22;;;29.70;99.90;;;;;;5063508;28;20019;-67
2023/12/16 10:13:56;;;;;;;768.75;691.92;;;29.70;99.90;;;;;;5062382;28;20016;-68
2023/12/16 10:16:24;;;;;;;726.80;653.35;;;29.60;99.90;;;;;;5061541;28;20012;-69
2023/12/16 10:18:53;;;;;;;784.80;705.78;;;29.60;99.90;;;;;;5063174;28;20020;-66
2023/12/16 10:21:22;;;;;;;758.22;682.00;;;29.50;99.90;;;;;;5063075;28;20494;-66
2023/12/16 10:23:49;;;;;;;679.45;609.88;;;29.50;99.90;;;;;;5068227;28;20029;-66
2023/12/16 10:26:16;;;;;;;556.00;498.00;;;29.50;99.90;;;;;;5060305;28;20029;-66
2023/12/16 10:28:47;;;;;;;569.38;509.20;;;29.50;99.90;;;;;;5069376;28;20035;-67
2023/12/16 10:31:15;;;;;;;553.90;495.55;;;29.50;99.90;;;;;;5067530;28;20036;-66
2023/12/16 10:33:42;;;;;;;537.33;480.65;;;29.50;99.90;;;;;;5067509;28;20021;-67
2023/12/16 10:36:09;;;;;;;575.45;515.55;;;29.40;99.90;;;;;;5068184;28;20107;-63
2023/12/16 10:38:35;;;;;;;557.47;499.13;;;29.40;99.90;;;;;;5066513;28;20516;-66
2023/12/16 10:41:02;;;;;;;569.45;509.75;;;29.40;99.90;;;;;;5067787;28;20464;-66
2023/12/16 10:43:29;;;;;;;567.50;508.27;;;29.40;99.90;;;;;;5065886;28;20098;-68
2023/12/16 10:46:01;;;;;;;542.40;485.25;;;29.50;99.90;;;;;;5066730;28;20094;-65
2023/12/16 10:48:33;;;;;;;563.75;504.58;;;29.50;99.90;;;;;;5066829;28;20028;-67
2023/12/16 10:51:02;;;;;;;581.88;521.30;;;29.30;99.90;;;;;;5071537;28;20112;-63
2023/12/16 10:53:51;;;;;;;624.03;559.35;;;29.20;99.90;;;;;;5059078;28;20027;-66
2023/12/16 10:56:27;;;;;;;598.95;536.80;;;29.20;99.90;;;;;;5058073;28;20036;-66
2023/12/16 10:59:14;;;;;;;615.40;551.40;;;29.30;99.90;;;;;;5071588;28;20016;-66
2023/12/16 11:01:47;;;;;;;642.47;577.08;;;29.40;99.90;;;;;;5072493;28;20430;-66
2023/12/16 11:04:16;;;;;;;650.75;584.53;;;29.20;99.90;;;;;;5073059;28;20024;-67
2023/12/16 11:06:43;;;;;;;778.35;700.42;;;29.20;99.90;;;;;;5069324;28;20547;-66
2023/12/16 11:09:11;;;;;;;615.78;552.53;;;29.10;99.90;;;;;;5066433;28;20028;-67
2023/12/16 11:11:41;;;;;;;617.50;553.88;;;29.00;99.90;;;;;;5065911;28;20024;-66
2023/12/16 11:14:08;;;;;;;665.75;598.00;;;28.90;99.90;;;;;;5065987;28;20056;-66
2023/12/16 11:16:45;;;;;;;543.22;486.25;;;28.90;99.90;;;;;;5071951;28;20515;-63
2023/12/16 11:19:13;;;;;;;514.28;460.17;;;28.80;99.90;;;;;;5072556;28;20432;-64
2023/12/16 11:21:42;;;;;;;532.00;475.95;;;28.80;99.90;;;;;;5064566;28;20020;-63
2023/12/16 11:24:10;;;;;;;530.97;475.08;;;28.80;99.90;;;;;;5065985;28;20045;-64
2023/12/16 11:26:36;;;;;;;708.33;637.10;;;28.90;99.90;;;;;;5068620;28;20032;-67
2023/12/16 11:29:03;;;;;;;710.22;638.08;;;28.90;99.90;;;;;;5064713;28;20024;-66
2023/12/16 11:31:31;;;;;;;651.10;584.45;;;28.90;99.90;;;;;;5066315;28;20031;-65
2023/12/16 11:33:57;;;;;;;613.50;550.38;;;28.90;99.90;;;;;;5084516;22;20053;-63
2023/12/16 11:36:47;;;;;;;581.22;520.95;;;28.90;99.90;;;;;;5043420;28;20075;-65
2023/12/16 11:39:38;;;;;;;575.00;515.30;;;28.90;99.90;;;;;;5041493;28;20028;-64
2023/12/16 11:42:08;;;;;;;634.80;570.70;;;29.00;99.90;;;;;;5046666;28;20071;-65
2023/12/16 11:44:55;;;;;;;657.70;591.08;;;29.00;99.90;;;;;;5049789;28;20337;-65
2023/12/16 11:47:24;;;;;;;693.90;624.30;;;29.00;99.90;;;;;;5048871;28;20025;-65
2023/12/16 11:49:52;;;;;;;746.13;671.25;;;28.90;99.90;;;;;;5048797;28;20237;-65
2023/12/16 11:52:21;;;;;;;709.58;638.00;;;28.90;99.90;;;;;;5048107;28;20036;-62
2023/12/16 11:54:51;;;;;;;739.50;665.47;;;28.90;99.90;;;;;;5049435;28;20096;-65
2023/12/16 11:57:20;;;;;;;810.30;730.35;;;28.90;99.90;;;;;;5048572;28;20443;-64
2023/12/16 11:59:47;;;;;;;742.88;668.15;;;28.90;99.90;;;;;;5049833;28;20032;-64
2023/12/16 12:02:15;;;;;;;696.17;626.03;;;28.90;99.90;;;;;;5052520;28;20494;-63
2023/12/16 12:04:42;;;;;;;664.58;597.15;;;28.90;99.90;;;;;;5055072;28;20024;-63
2023/12/16 12:07:09;;;;;;;615.65;552.55;;;28.90;99.90;;;;;;5054626;28;20032;-65